sensor_id;sensor_type;location;lat;lon;timestamp;pressure;altitude;pressure_sealevel;temperature;humidity
25156;BME280;21913;52.456;13.634;2023-03-22T00:01:41;99785.22;;;11.83;73.54
25156;BME280;21913;52.456;13.634;2023-03-22T00:06:43;99786.97;;;11.83;73.61
25156;BME280;21913;52.456;13.634;2023-03-22T00:11:44;99774.88;;;11.82;73.61
25156;BME280;21913;52.456;13.634;2023-03-22T00:16:46;99779.19;;;11.83;73.53
25156;BME280;21913;52.456;13.634;2023-03-22T00:21:47;99781.78;;;11.83;73.55
25156;BME280;21913;52.456;13.634;2023-03-22T00:26:48;99778.31;;;11.82;73.53
25156;BME280;21913;52.456;13.634;2023-03-22T00:31:50;99779.19;;;11.83;73.66
25156;BME280;21913;52.456;13.634;2023-03-22T00:36:52;99771.41;;;11.83;73.64
25156;BME280;21913;52.456;13.634;2023-03-22T00:41:53;99771.41;;;11.83;73.50
25156;BME280;21913;52.456;13.634;2023-03-22T00:46:55;99761.03;;;11.83;73.48
25156;BME280;21913;52.456;13.634;2023-03-22T00:51:57;99768.81;;;11.83;73.66
25156;BME280;21913;52.456;13.634;2023-03-22T00:56:59;99750.66;;;11.83;73.58
25156;BME280;21913;52.456;13.634;2023-03-22T01:02:00;99748.94;;;11.83;73.65
25156;BME280;21913;52.456;13.634;2023-03-22T01:07:02;99748.97;;;11.82;73.56
25156;BME280;21913;52.456;13.634;2023-03-22T01:12:04;99742.00;;;11.84;73.68
25156;BME280;21913;52.456;13.634;2023-03-22T01:17:05;99731.66;;;11.82;73.60
25156;BME280;21913;52.456;13.634;2023-03-22T01:22:07;99724.75;;;11.83;73.55
25156;BME280;21913;52.456;13.634;2023-03-22T01:27:09;99725.59;;;11.83;73.67
25156;BME280;21913;52.456;13.634;2023-03-22T01:32:10;99716.13;;;11.82;73.44
25156;BME280;21913;52.456;13.634;2023-03-22T01:37:12;99717.84;;;11.83;73.49
25156;BME280;21913;52.456;13.634;2023-03-22T01:42:18;99709.19;;;11.83;73.51
25156;BME280;21913;52.456;13.634;2023-03-22T01:47:20;99707.47;;;11.83;73.71
25156;BME280;21913;52.456;13.634;2023-03-22T01:52:21;99704.00;;;11.83;73.61
25156;BME280;21913;52.456;13.634;2023-03-22T01:57:34;99697.97;;;11.82;73.54
25156;BME280;21913;52.456;13.634;2023-03-22T02:02:38;99691.94;;;11.82;73.62
25156;BME280;21913;52.456;13.634;2023-03-22T02:07:51;99691.06;;;11.83;73.72
25156;BME280;21913;52.456;13.634;2023-03-22T02:39:34;99661.69;;;11.82;73.64
25156;BME280;21913;52.456;13.634;2023-03-22T02:44:45;99665.13;;;11.83;73.60
25156;BME280;21913;52.456;13.634;2023-03-22T02:49:55;99651.31;;;11.82;73.63
25156;BME280;21913;52.456;13.634;2023-03-22T02:55:23;99646.13;;;11.82;73.61
25156;BME280;21913;52.456;13.634;2023-03-22T03:00:27;99636.63;;;11.83;73.68
25156;BME280;21913;52.456;13.634;2023-03-22T03:05:32;99638.34;;;11.82;73.51
25156;BME280;21913;52.456;13.634;2023-03-22T03:10:34;99633.16;;;11.82;73.69
25156;BME280;21913;52.456;13.634;2023-03-22T03:15:38;99628.84;;;11.83;73.81
25156;BME280;21913;52.456;13.634;2023-03-22T03:37:09;99618.47;;;11.83;73.68
25156;BME280;21913;52.456;13.634;2023-03-22T03:42:14;99614.16;;;11.82;73.58
25156;BME280;21913;52.456;13.634;2023-03-22T03:47:16;99621.91;;;11.83;73.71
25156;BME280;21913;52.456;13.634;2023-03-22T03:52:19;99617.63;;;11.82;73.51
25156;BME280;21913;52.456;13.634;2023-03-22T03:57:20;99612.44;;;11.82;73.56
25156;BME280;21913;52.456;13.634;2023-03-22T04:02:22;99608.09;;;11.83;73.69
25156;BME280;21913;52.456;13.634;2023-03-22T04:07:27;99609.81;;;11.84;73.65
25156;BME280;21913;52.456;13.634;2023-03-22T04:12:29;99600.31;;;11.83;73.60
25156;BME280;21913;52.456;13.634;2023-03-22T04:17:48;99605.50;;;11.83;73.58
25156;BME280;21913;52.456;13.634;2023-03-22T04:22:51;99600.31;;;11.83;73.69
25156;BME280;21913;52.456;13.634;2023-03-22T04:27:53;99594.28;;;11.82;73.59
25156;BME280;21913;52.456;13.634;2023-03-22T04:32:55;99594.28;;;11.82;73.59
25156;BME280;21913;52.456;13.634;2023-03-22T04:38:09;99594.28;;;11.82;73.68
25156;BME280;21913;52.456;13.634;2023-03-22T04:43:11;99592.56;;;11.83;73.54
25156;BME280;21913;52.456;13.634;2023-03-22T04:48:20;99578.75;;;11.82;73.65
25156;BME280;21913;52.456;13.634;2023-03-22T04:53:22;99584.81;;;11.81;73.80
25156;BME280;21913;52.456;13.634;2023-03-22T04:58:25;99581.31;;;11.82;73.63
25156;BME280;21913;52.456;13.634;2023-03-22T05:03:26;99580.47;;;11.82;73.74
25156;BME280;21913;52.456;13.634;2023-03-22T05:08:29;99577.88;;;11.82;73.61
25156;BME280;21913;52.456;13.634;2023-03-22T05:13:31;99581.31;;;11.82;73.59
25156;BME280;21913;52.456;13.634;2023-03-22T05:18:33;99574.41;;;11.83;73.66
25156;BME280;21913;52.456;13.634;2023-03-22T05:23:35;99578.75;;;11.82;73.68
25156;BME280;21913;52.456;13.634;2023-03-22T05:28:38;99580.47;;;11.82;73.60
25156;BME280;21913;52.456;13.634;2023-03-22T05:33:52;99570.97;;;11.82;73.54
25156;BME280;21913;52.456;13.634;2023-03-22T05:38:57;99577.88;;;11.82;73.50
25156;BME280;21913;52.456;13.634;2023-03-22T05:43:59;99566.66;;;11.81;73.68
25156;BME280;21913;52.456;13.634;2023-03-22T05:49:01;99579.63;;;11.81;73.55
25156;BME280;21913;52.456;13.634;2023-03-22T05:54:03;99577.88;;;11.82;73.48
25156;BME280;21913;52.456;13.634;2023-03-22T05:59:10;99577.03;;;11.81;73.54
25156;BME280;21913;52.456;13.634;2023-03-22T06:04:13;99583.91;;;11.82;73.64
25156;BME280;21913;52.456;13.634;2023-03-22T06:09:40;99573.56;;;11.81;73.69
25156;BME280;21913;52.456;13.634;2023-03-22T06:14:46;99566.66;;;11.81;73.70
25156;BME280;21913;52.456;13.634;2023-03-22T06:19:56;99571.84;;;11.81;73.60
25156;BME280;21913;52.456;13.634;2023-03-22T06:24:58;99572.69;;;11.82;73.61
25156;BME280;21913;52.456;13.634;2023-03-22T06:30:09;99569.25;;;11.81;73.72
25156;BME280;21913;52.456;13.634;2023-03-22T06:35:27;99556.28;;;11.81;73.65
25156;BME280;21913;52.456;13.634;2023-03-22T06:40:28;99560.59;;;11.82;73.59
25156;BME280;21913;52.456;13.634;2023-03-22T06:45:30;99560.59;;;11.82;73.59
25156;BME280;21913;52.456;13.634;2023-03-22T06:50:33;99557.16;;;11.82;73.77
25156;BME280;21913;52.456;13.634;2023-03-22T06:55:39;99552.81;;;11.81;73.65
25156;BME280;21913;52.456;13.634;2023-03-22T07:00:47;99559.75;;;11.82;73.56
25156;BME280;21913;52.456;13.634;2023-03-22T07:05:52;99558.00;;;11.82;73.56
25156;BME280;21913;52.456;13.634;2023-03-22T07:11:04;99547.63;;;11.82;73.68
25156;BME280;21913;52.456;13.634;2023-03-22T07:16:06;99548.50;;;11.83;73.60
25156;BME280;21913;52.456;13.634;2023-03-22T07:21:26;99545.03;;;11.82;73.51
25156;BME280;21913;52.456;13.634;2023-03-22T07:26:32;99542.44;;;11.82;73.69
25156;BME280;21913;52.456;13.634;2023-03-22T07:31:36;99526.91;;;11.82;73.65
25156;BME280;21913;52.456;13.634;2023-03-22T07:36:40;99521.72;;;11.82;73.58
25156;BME280;21913;52.456;13.634;2023-03-22T07:41:44;99526.03;;;11.82;73.63
25156;BME280;21913;52.456;13.634;2023-03-22T07:46:57;99513.09;;;11.82;73.58
25156;BME280;21913;52.456;13.634;2023-03-22T07:52:06;99514.78;;;11.83;73.68
25156;BME280;21913;52.456;13.634;2023-03-22T07:57:07;99512.19;;;11.83;73.68
25156;BME280;21913;52.456;13.634;2023-03-22T08:02:15;99511.34;;;11.82;73.65
25156;BME280;21913;52.456;13.634;2023-03-22T08:07:23;99525.16;;;11.83;73.57
25156;BME280;21913;52.456;13.634;2023-03-22T08:12:25;99520.84;;;11.82;73.65
25156;BME280;21913;52.456;13.634;2023-03-22T08:17:33;99520.84;;;11.82;73.70
25156;BME280;21913;52.456;13.634;2023-03-22T08:22:35;99515.69;;;11.82;73.79
25156;BME280;21913;52.456;13.634;2023-03-22T08:28:09;99514.78;;;11.83;73.61
25156;BME280;21913;52.456;13.634;2023-03-22T08:33:11;99506.13;;;11.84;73.76
25156;BME280;21913;52.456;13.634;2023-03-22T08:38:12;99496.66;;;11.83;73.63
25156;BME280;21913;52.456;13.634;2023-03-22T08:43:20;99494.03;;;11.84;73.66
25156;BME280;21913;52.456;13.634;2023-03-22T08:48:21;99490.59;;;11.86;73.99
25156;BME280;21913;52.456;13.634;2023-03-22T08:53:37;99494.88;;;11.87;73.85
25156;BME280;21913;52.456;13.634;2023-03-22T08:59:01;99498.31;;;11.87;73.89
25156;BME280;21913;52.456;13.634;2023-03-22T09:04:13;99489.69;;;11.87;73.93
25156;BME280;21913;52.456;13.634;2023-03-22T09:09:15;99504.38;;;11.88;73.65
25156;BME280;21913;52.456;13.634;2023-03-22T09:14:20;99500.06;;;11.87;73.49
25156;BME280;21913;52.456;13.634;2023-03-22T09:19:22;99495.72;;;11.87;73.64
25156;BME280;21913;52.456;13.634;2023-03-22T09:24:24;99495.72;;;11.87;73.81
25156;BME280;21913;52.456;13.634;2023-03-22T09:29:30;99480.19;;;11.87;73.73
25156;BME280;21913;52.456;13.634;2023-03-22T09:34:36;99469.81;;;11.87;73.90
25156;BME280;21913;52.456;13.634;2023-03-22T09:39:39;99477.59;;;11.87;73.89
25156;BME280;21913;52.456;13.634;2023-03-22T09:44:44;99469.81;;;11.87;73.76
25156;BME280;21913;52.456;13.634;2023-03-22T09:50:02;99471.56;;;11.87;73.74
25156;BME280;21913;52.456;13.634;2023-03-22T09:55:36;99464.63;;;11.87;73.68
25156;BME280;21913;52.456;13.634;2023-03-22T10:00:44;99470.63;;;11.89;73.88
25156;BME280;21913;52.456;13.634;2023-03-22T10:06:08;99457.72;;;11.88;73.98
25156;BME280;21913;52.456;13.634;2023-03-22T10:16:53;99446.47;;;11.87;73.84
25156;BME280;21913;52.456;13.634;2023-03-22T10:21:58;99436.97;;;11.88;73.94
25156;BME280;21913;52.456;13.634;2023-03-22T10:27:01;99449.94;;;11.88;73.96
25156;BME280;21913;52.456;13.634;2023-03-22T10:37:17;99440.38;;;11.90;73.96
25156;BME280;21913;52.456;13.634;2023-03-22T10:42:23;99445.56;;;11.90;73.96
25156;BME280;21913;52.456;13.634;2023-03-22T10:47:32;99446.41;;;11.90;73.85
25156;BME280;21913;52.456;13.634;2023-03-22T10:57:41;99441.28;;;11.89;73.87
25156;BME280;21913;52.456;13.634;2023-03-22T11:02:51;99455.94;;;11.90;73.85
25156;BME280;21913;52.456;13.634;2023-03-22T11:07:53;99449.91;;;11.89;73.86
25156;BME280;21913;52.456;13.634;2023-03-22T11:18:14;99463.72;;;11.90;73.89
25156;BME280;21913;52.456;13.634;2023-03-22T11:23:18;99462.84;;;11.89;73.88
25156;BME280;21913;52.456;13.634;2023-03-22T11:28:27;99472.34;;;11.90;73.96
25156;BME280;21913;52.456;13.634;2023-03-22T11:33:29;99481.00;;;11.89;73.83
25156;BME280;21913;52.456;13.634;2023-03-22T11:38:39;99467.16;;;11.90;74.00
25156;BME280;21913;52.456;13.634;2023-03-22T11:43:45;99470.63;;;11.89;73.84
25156;BME280;21913;52.456;13.634;2023-03-22T11:48:50;99468.03;;;11.89;73.71
25156;BME280;21913;52.456;13.634;2023-03-22T11:53:55;99465.44;;;11.89;73.88
25156;BME280;21913;52.456;13.634;2023-03-22T11:59:06;99450.75;;;11.90;73.80
25156;BME280;21913;52.456;13.634;2023-03-22T12:04:12;99450.75;;;11.90;73.75
25156;BME280;21913;52.456;13.634;2023-03-22T12:09:24;99438.66;;;11.90;73.77
25156;BME280;21913;52.456;13.634;2023-03-22T12:14:32;99442.13;;;11.91;73.94
25156;BME280;21913;52.456;13.634;2023-03-22T12:19:55;99436.06;;;11.92;73.82
25156;BME280;21913;52.456;13.634;2023-03-22T12:24:58;99428.28;;;11.90;74.02
25156;BME280;21913;52.456;13.634;2023-03-22T12:30:15;99430.00;;;11.91;73.96
25156;BME280;21913;52.456;13.634;2023-03-22T12:35:24;99427.41;;;11.91;73.79
25156;BME280;21913;52.456;13.634;2023-03-22T12:40:33;99423.09;;;11.90;73.87
25156;BME280;21913;52.456;13.634;2023-03-22T12:45:43;99415.31;;;11.90;73.80
25156;BME280;21913;52.456;13.634;2023-03-22T12:50:54;99417.06;;;11.90;73.95
25156;BME280;21913;52.456;13.634;2023-03-22T12:55:58;99416.19;;;11.91;73.92
25156;BME280;21913;52.456;13.634;2023-03-22T13:01:18;99410.13;;;11.90;73.76
25156;BME280;21913;52.456;13.634;2023-03-22T13:11:28;99426.56;;;11.91;73.91
25156;BME280;21913;52.456;13.634;2023-03-22T13:16:55;99431.75;;;11.91;73.95
25156;BME280;21913;52.456;13.634;2023-03-22T13:38:02;99446.41;;;11.90;73.83
25156;BME280;21913;52.456;13.634;2023-03-22T13:43:20;99442.13;;;11.91;73.86
25156;BME280;21913;52.456;13.634;2023-03-22T13:53:54;99444.72;;;11.91;73.97
25156;BME280;21913;52.456;13.634;2023-03-22T13:58:57;99433.47;;;11.90;73.96
25156;BME280;21913;52.456;13.634;2023-03-22T14:04:00;99442.97;;;11.90;73.94
25156;BME280;21913;52.456;13.634;2023-03-22T14:09:15;99443.81;;;11.92;73.92
25156;BME280;21913;52.456;13.634;2023-03-22T14:14:26;99442.13;;;11.91;73.88
25156;BME280;21913;52.456;13.634;2023-03-22T14:19:30;99440.38;;;11.91;73.90
25156;BME280;21913;52.456;13.634;2023-03-22T14:24:34;99426.56;;;11.91;73.95
25156;BME280;21913;52.456;13.634;2023-03-22T14:29:44;99424.81;;;11.91;73.83
25156;BME280;21913;52.456;13.634;2023-03-22T14:34:47;99414.47;;;11.90;73.75
25156;BME280;21913;52.456;13.634;2023-03-22T14:39:50;99410.13;;;11.92;73.92
25156;BME280;21913;52.456;13.634;2023-03-22T14:44:59;99413.59;;;11.91;73.91
25156;BME280;21913;52.456;13.634;2023-03-22T14:50:05;99405.84;;;11.91;73.79
25156;BME280;21913;52.456;13.634;2023-03-22T14:55:29;99407.53;;;11.92;74.02
25156;BME280;21913;52.456;13.634;2023-03-22T15:00:28;99410.13;;;11.90;73.99
25156;BME280;21913;52.456;13.634;2023-03-22T15:05:35;99411.88;;;11.91;73.96
25156;BME280;21913;52.456;13.634;2023-03-22T15:10:37;99412.72;;;11.92;73.80
25156;BME280;21913;52.456;13.634;2023-03-22T15:15:40;99419.66;;;11.91;73.82
25156;BME280;21913;52.456;13.634;2023-03-22T15:20:41;99412.72;;;11.92;73.94
25156;BME280;21913;52.456;13.634;2023-03-22T15:25:50;99418.75;;;11.92;74.04
25156;BME280;21913;52.456;13.634;2023-03-22T15:30:52;99414.44;;;11.93;73.88
25156;BME280;21913;52.456;13.634;2023-03-22T15:35:54;99415.31;;;11.92;73.95
25156;BME280;21913;52.456;13.634;2023-03-22T15:40:55;99404.09;;;11.91;73.94
25156;BME280;21913;52.456;13.634;2023-03-22T15:46:16;99409.28;;;11.91;73.76
25156;BME280;21913;52.456;13.634;2023-03-22T15:51:19;99417.91;;;11.92;73.99
25156;BME280;21913;52.456;13.634;2023-03-22T15:56:29;99424.78;;;11.93;73.95
25156;BME280;21913;52.456;13.634;2023-03-22T16:01:34;99427.41;;;11.91;74.16
25156;BME280;21913;52.456;13.634;2023-03-22T16:06:40;99422.25;;;11.91;74.05
25156;BME280;21913;52.456;13.634;2023-03-22T16:11:41;99409.28;;;11.91;74.01
25156;BME280;21913;52.456;13.634;2023-03-22T16:16:43;99409.28;;;11.91;74.02
25156;BME280;21913;52.456;13.634;2023-03-22T16:21:44;99408.44;;;11.91;74.02
25156;BME280;21913;52.456;13.634;2023-03-22T16:26:45;99403.22;;;11.92;73.85
25156;BME280;21913;52.456;13.634;2023-03-22T16:31:45;99404.09;;;11.91;74.00
25156;BME280;21913;52.456;13.634;2023-03-22T16:36:45;99407.53;;;11.92;74.02
25156;BME280;21913;52.456;13.634;2023-03-22T16:41:46;99406.66;;;11.93;74.04
25156;BME280;21913;52.456;13.634;2023-03-22T16:46:46;99413.56;;;11.92;74.04
25156;BME280;21913;52.456;13.634;2023-03-22T16:51:47;99410.13;;;11.92;73.92
25156;BME280;21913;52.456;13.634;2023-03-22T16:56:47;99413.56;;;11.92;74.09
25156;BME280;21913;52.456;13.634;2023-03-22T17:01:48;99409.28;;;11.91;73.84
25156;BME280;21913;52.456;13.634;2023-03-22T17:06:48;99417.03;;;11.93;73.90
25156;BME280;21913;52.456;13.634;2023-03-22T17:11:49;99414.44;;;11.93;73.89
25156;BME280;21913;52.456;13.634;2023-03-22T17:16:49;99401.50;;;11.91;73.83
25156;BME280;21913;52.456;13.634;2023-03-22T17:21:49;99399.75;;;11.92;73.92
25156;BME280;21913;52.456;13.634;2023-03-22T17:26:50;99401.50;;;11.91;74.08
25156;BME280;21913;52.456;13.634;2023-03-22T17:31:50;99402.34;;;11.92;73.94
25156;BME280;21913;52.456;13.634;2023-03-22T17:36:51;99401.47;;;11.93;73.91
25156;BME280;21913;52.456;13.634;2023-03-22T17:41:51;99404.06;;;11.93;74.03
25156;BME280;21913;52.456;13.634;2023-03-22T17:46:51;99391.97;;;11.92;74.01
25156;BME280;21913;52.456;13.634;2023-03-22T17:51:52;99391.13;;;11.91;73.75
25156;BME280;21913;52.456;13.634;2023-03-22T17:56:53;99391.94;;;11.93;73.87
25156;BME280;21913;52.456;13.634;2023-03-22T18:01:54;99389.34;;;11.93;74.01
25156;BME280;21913;52.456;13.634;2023-03-22T18:06:54;99382.47;;;11.92;74.07
25156;BME280;21913;52.456;13.634;2023-03-22T18:11:55;99380.72;;;11.93;74.02
25156;BME280;21913;52.456;13.634;2023-03-22T18:16:55;99376.41;;;11.93;73.97
25156;BME280;21913;52.456;13.634;2023-03-22T18:21:56;99366.91;;;11.92;73.99
25156;BME280;21913;52.456;13.634;2023-03-22T18:26:57;99370.34;;;11.93;73.84
25156;BME280;21913;52.456;13.634;2023-03-22T18:31:58;99372.94;;;11.93;74.01
25156;BME280;21913;52.456;13.634;2023-03-22T18:36:58;99383.31;;;11.93;73.99
25156;BME280;21913;52.456;13.634;2023-03-22T18:41:59;99367.75;;;11.93;74.01
25156;BME280;21913;52.456;13.634;2023-03-22T18:46:59;99364.31;;;11.92;74.00
25156;BME280;21913;52.456;13.634;2023-03-22T18:52:00;99361.72;;;11.92;74.09
25156;BME280;21913;52.456;13.634;2023-03-22T18:57:00;99347.03;;;11.93;73.94
25156;BME280;21913;52.456;13.634;2023-03-22T19:02:01;99353.94;;;11.92;74.02
25156;BME280;21913;52.456;13.634;2023-03-22T19:07:01;99353.06;;;11.93;73.87
25156;BME280;21913;52.456;13.634;2023-03-22T19:12:02;99352.22;;;11.93;73.93
25156;BME280;21913;52.456;13.634;2023-03-22T19:17:02;99353.06;;;11.93;73.71
25156;BME280;21913;52.456;13.634;2023-03-22T19:22:03;99357.41;;;11.93;73.81
25156;BME280;21913;52.456;13.634;2023-03-22T19:27:03;99349.59;;;11.94;73.90
25156;BME280;21913;52.456;13.634;2023-03-22T19:32:04;99308.16;;;11.93;73.92
25156;BME280;21913;52.456;13.634;2023-03-22T19:37:04;99317.63;;;11.94;73.96
25156;BME280;21913;52.456;13.634;2023-03-22T19:42:05;99332.31;;;11.93;73.90
25156;BME280;21913;52.456;13.634;2023-03-22T19:47:05;99322.81;;;11.94;73.88
25156;BME280;21913;52.456;13.634;2023-03-22T19:52:06;99323.66;;;11.94;73.87
25156;BME280;21913;52.456;13.634;2023-03-22T19:57:07;99321.97;;;11.93;73.83
25156;BME280;21913;52.456;13.634;2023-03-22T20:02:09;99308.09;;;11.94;74.14
25156;BME280;21913;52.456;13.634;2023-03-22T20:07:09;99307.25;;;11.94;73.90
25156;BME280;21913;52.456;13.634;2023-03-22T20:12:10;99302.94;;;11.94;74.02
25156;BME280;21913;52.456;13.634;2023-03-22T20:17:10;99308.97;;;11.95;73.82
25156;BME280;21913;52.456;13.634;2023-03-22T20:22:11;99300.34;;;11.94;73.82
25156;BME280;21913;52.456;13.634;2023-03-22T20:27:11;99293.44;;;11.93;73.94
25156;BME280;21913;52.456;13.634;2023-03-22T20:32:12;99277.84;;;11.95;74.00
25156;BME280;21913;52.456;13.634;2023-03-22T20:37:12;99266.63;;;11.94;73.95
25156;BME280;21913;52.456;13.634;2023-03-22T20:42:13;99260.59;;;11.94;73.98
25156;BME280;21913;52.456;13.634;2023-03-22T20:47:13;99277.00;;;11.94;74.03
25156;BME280;21913;52.456;13.634;2023-03-22T20:52:14;99276.13;;;11.95;73.97
25156;BME280;21913;52.456;13.634;2023-03-22T20:57:14;99266.63;;;11.94;73.86
25156;BME280;21913;52.456;13.634;2023-03-22T21:02:15;99253.63;;;11.96;74.06
25156;BME280;21913;52.456;13.634;2023-03-22T21:07:15;99259.72;;;11.95;73.96
25156;BME280;21913;52.456;13.634;2023-03-22T21:12:16;99260.56;;;11.95;73.97
25156;BME280;21913;52.456;13.634;2023-03-22T21:17:16;99260.56;;;11.95;74.00
25156;BME280;21913;52.456;13.634;2023-03-22T21:22:17;99254.53;;;11.95;73.98
25156;BME280;21913;52.456;13.634;2023-03-22T21:27:17;99248.44;;;11.96;74.03
25156;BME280;21913;52.456;13.634;2023-03-22T21:32:18;99251.03;;;11.96;73.96
25156;BME280;21913;52.456;13.634;2023-03-22T21:37:18;99245.00;;;11.95;73.92
25156;BME280;21913;52.456;13.634;2023-03-22T21:42:20;99241.56;;;11.96;74.15
25156;BME280;21913;52.456;13.634;2023-03-22T21:47:21;99240.66;;;11.96;73.90
25156;BME280;21913;52.456;13.634;2023-03-22T21:52:22;99246.75;;;11.95;74.07
25156;BME280;21913;52.456;13.634;2023-03-22T21:57:25;99238.97;;;11.96;74.05
25156;BME280;21913;52.456;13.634;2023-03-22T22:02:26;99240.66;;;11.96;74.01
25156;BME280;21913;52.456;13.634;2023-03-22T22:07:26;99233.78;;;11.96;73.98
25156;BME280;21913;52.456;13.634;2023-03-22T22:12:26;99238.06;;;11.96;73.95
25156;BME280;21913;52.456;13.634;2023-03-22T22:17:27;99226.84;;;11.97;74.05
25156;BME280;21913;52.456;13.634;2023-03-22T22:22:27;99238.06;;;11.96;74.04
25156;BME280;21913;52.456;13.634;2023-03-22T22:27:28;99238.97;;;11.96;74.03
25156;BME280;21913;52.456;13.634;2023-03-22T22:32:28;99228.59;;;11.96;74.08
25156;BME280;21913;52.456;13.634;2023-03-22T22:37:29;99228.59;;;11.96;74.08
25156;BME280;21913;52.456;13.634;2023-03-22T22:42:29;99221.66;;;11.95;74.02
25156;BME280;21913;52.456;13.634;2023-03-22T22:47:30;99230.31;;;11.96;74.07
25156;BME280;21913;52.456;13.634;2023-03-22T22:52:38;99215.63;;;11.96;73.91
25156;BME280;21913;52.456;13.634;2023-03-22T22:57:39;99210.44;;;11.96;74.10
25156;BME280;21913;52.456;13.634;2023-03-22T23:02:40;99206.13;;;11.95;74.02
25156;BME280;21913;52.456;13.634;2023-03-22T23:07:40;99200.94;;;11.95;74.03
25156;BME280;21913;52.456;13.634;2023-03-22T23:12:41;99200.06;;;11.96;74.00
25156;BME280;21913;52.456;13.634;2023-03-22T23:17:41;99202.66;;;11.96;74.05
25156;BME280;21913;52.456;13.634;2023-03-22T23:22:42;99193.16;;;11.95;74.00
25156;BME280;21913;52.456;13.634;2023-03-22T23:27:43;99187.13;;;11.96;73.98
25156;BME280;21913;52.456;13.634;2023-03-22T23:32:43;99186.22;;;11.96;74.13
25156;BME280;21913;52.456;13.634;2023-03-22T23:37:43;99192.31;;;11.96;74.03
25156;BME280;21913;52.456;13.634;2023-03-22T23:42:44;99193.16;;;11.97;74.04
25156;BME280;21913;52.456;13.634;2023-03-22T23:47:44;99195.75;;;11.97;74.09
25156;BME280;21913;52.456;13.634;2023-03-22T23:52:45;99187.97;;;11.97;74.07
25156;BME280;21913;52.456;13.634;2023-03-22T23:57:46;99187.13;;;11.96;74.00
